sensor_id;sensor_type;location;lat;lon;timestamp;temperature;humidity
65972;SHT31;52726;48.852;9.152;2023-01-04T00:02:25;2.45;95.64
65972;SHT31;52726;48.852;9.152;2023-01-04T00:04:52;2.48;95.84
65972;SHT31;52726;48.852;9.152;2023-01-04T00:10:39;2.45;95.60
65972;SHT31;52726;48.852;9.152;2023-01-04T00:13:04;2.48;95.48
65972;SHT31;52726;48.852;9.152;2023-01-04T00:15:30;2.50;95.74
65972;SHT31;52726;48.852;9.152;2023-01-04T00:17:55;2.49;95.21
65972;SHT31;52726;48.852;9.152;2023-01-04T00:20:21;2.45;95.01
65972;SHT31;52726;48.852;9.152;2023-01-04T00:22:47;2.39;94.97
65972;SHT31;52726;48.852;9.152;2023-01-04T00:25:12;2.35;95.26
65972;SHT31;52726;48.852;9.152;2023-01-04T00:27:37;2.42;95.81
65972;SHT31;52726;48.852;9.152;2023-01-04T00:30:03;2.45;95.22
65972;SHT31;52726;48.852;9.152;2023-01-04T00:32:30;2.54;95.91
65972;SHT31;52726;48.852;9.152;2023-01-04T00:34:55;2.49;95.34
65972;SHT31;52726;48.852;9.152;2023-01-04T00:37:21;2.56;95.62
65972;SHT31;52726;48.852;9.152;2023-01-04T00:39:46;2.57;95.55
65972;SHT31;52726;48.852;9.152;2023-01-04T00:42:11;2.66;95.83
65972;SHT31;52726;48.852;9.152;2023-01-04T00:44:37;2.69;95.45
65972;SHT31;52726;48.852;9.152;2023-01-04T00:47:03;2.70;95.42
65972;SHT31;52726;48.852;9.152;2023-01-04T00:49:29;2.67;95.03
65972;SHT31;52726;48.852;9.152;2023-01-04T00:51:55;2.63;95.00
65972;SHT31;52726;48.852;9.152;2023-01-04T00:54:20;2.72;95.54
65972;SHT31;52726;48.852;9.152;2023-01-04T00:56:46;2.66;95.25
65972;SHT31;52726;48.852;9.152;2023-01-04T00:59:15;2.60;95.05
65972;SHT31;52726;48.852;9.152;2023-01-04T01:01:41;2.52;94.51
65972;SHT31;52726;48.852;9.152;2023-01-04T01:04:10;2.43;95.01
65972;SHT31;52726;48.852;9.152;2023-01-04T01:06:36;2.32;94.64
65972;SHT31;52726;48.852;9.152;2023-01-04T01:09:02;2.26;94.73
65972;SHT31;52726;48.852;9.152;2023-01-04T01:11:28;2.14;94.51
65972;SHT31;52726;48.852;9.152;2023-01-04T01:13:54;2.05;94.94
65972;SHT31;52726;48.852;9.152;2023-01-04T01:16:22;2.04;95.37
65972;SHT31;52726;48.852;9.152;2023-01-04T01:19:15;2.08;95.53
65972;SHT31;52726;48.852;9.152;2023-01-04T01:22:20;2.02;95.60
65972;SHT31;52726;48.852;9.152;2023-01-04T01:24:45;1.98;95.44
65972;SHT31;52726;48.852;9.152;2023-01-04T01:27:10;1.94;95.51
65972;SHT31;52726;48.852;9.152;2023-01-04T01:29:36;1.94;95.84
65972;SHT31;52726;48.852;9.152;2023-01-04T01:32:01;1.88;95.70
65972;SHT31;52726;48.852;9.152;2023-01-04T01:34:26;1.90;96.05
65972;SHT31;52726;48.852;9.152;2023-01-04T01:36:52;1.90;96.16
65972;SHT31;52726;48.852;9.152;2023-01-04T01:39:17;1.88;96.10
65972;SHT31;52726;48.852;9.152;2023-01-04T01:41:43;1.83;95.79
65972;SHT31;52726;48.852;9.152;2023-01-04T01:46:56;1.73;95.85
65972;SHT31;52726;48.852;9.152;2023-01-04T01:49:36;1.81;96.06
65972;SHT31;52726;48.852;9.152;2023-01-04T01:52:04;1.91;96.47
65972;SHT31;52726;48.852;9.152;2023-01-04T01:54:42;1.83;95.31
65972;SHT31;52726;48.852;9.152;2023-01-04T01:57:12;1.84;95.80
65972;SHT31;52726;48.852;9.152;2023-01-04T01:59:41;1.95;96.07
65972;SHT31;52726;48.852;9.152;2023-01-04T02:02:09;1.93;95.55
65972;SHT31;52726;48.852;9.152;2023-01-04T02:04:36;1.93;95.46
65972;SHT31;52726;48.852;9.152;2023-01-04T02:07:03;1.83;94.61
65972;SHT31;52726;48.852;9.152;2023-01-04T02:09:29;1.77;94.89
65972;SHT31;52726;48.852;9.152;2023-01-04T02:11:55;1.64;94.54
65972;SHT31;52726;48.852;9.152;2023-01-04T02:14:20;1.57;95.10
65972;SHT31;52726;48.852;9.152;2023-01-04T02:19:47;1.49;95.16
65972;SHT31;52726;48.852;9.152;2023-01-04T02:33:33;1.15;95.63
65972;SHT31;52726;48.852;9.152;2023-01-04T02:36:27;1.09;96.31
65972;SHT31;52726;48.852;9.152;2023-01-04T02:39:21;1.05;95.46
65972;SHT31;52726;48.852;9.152;2023-01-04T02:44:26;1.07;95.43
65972;SHT31;52726;48.852;9.152;2023-01-04T02:47:17;1.04;95.32
65972;SHT31;52726;48.852;9.152;2023-01-04T02:50:29;0.98;95.40
65972;SHT31;52726;48.852;9.152;2023-01-04T02:56:03;0.89;95.26
65972;SHT31;52726;48.852;9.152;2023-01-04T03:07:54;0.91;95.81
65972;SHT31;52726;48.852;9.152;2023-01-04T03:10:49;0.95;96.36
65972;SHT31;52726;48.852;9.152;2023-01-04T03:15:54;1.29;96.88
65972;SHT31;52726;48.852;9.152;2023-01-04T03:18:27;1.34;96.59
65972;SHT31;52726;48.852;9.152;2023-01-04T03:20:55;1.36;96.46
65972;SHT31;52726;48.852;9.152;2023-01-04T03:23:25;1.45;96.91
65972;SHT31;52726;48.852;9.152;2023-01-04T03:26:13;1.57;96.70
65972;SHT31;52726;48.852;9.152;2023-01-04T03:29:05;1.70;95.85
65972;SHT31;52726;48.852;9.152;2023-01-04T03:31:59;1.87;95.40
65972;SHT31;52726;48.852;9.152;2023-01-04T03:34:45;2.10;94.70
65972;SHT31;52726;48.852;9.152;2023-01-04T03:43:06;2.29;94.39
65972;SHT31;52726;48.852;9.152;2023-01-04T03:46:01;2.38;94.42
65972;SHT31;52726;48.852;9.152;2023-01-04T03:49:06;2.26;94.00
65972;SHT31;52726;48.852;9.152;2023-01-04T03:51:36;2.18;94.06
65972;SHT31;52726;48.852;9.152;2023-01-04T03:54:06;2.17;94.26
65972;SHT31;52726;48.852;9.152;2023-01-04T03:56:35;2.17;94.49
65972;SHT31;52726;48.852;9.152;2023-01-04T03:59:01;2.18;94.80
65972;SHT31;52726;48.852;9.152;2023-01-04T04:01:27;2.15;94.70
65972;SHT31;52726;48.852;9.152;2023-01-04T04:03:53;2.17;95.06
65972;SHT31;52726;48.852;9.152;2023-01-04T04:06:37;2.20;95.31
65972;SHT31;52726;48.852;9.152;2023-01-04T04:09:22;2.21;95.10
65972;SHT31;52726;48.852;9.152;2023-01-04T04:11:47;2.22;95.15
65972;SHT31;52726;48.852;9.152;2023-01-04T04:14:13;2.25;95.21
65972;SHT31;52726;48.852;9.152;2023-01-04T04:16:38;2.26;95.20
65972;SHT31;52726;48.852;9.152;2023-01-04T04:19:03;2.31;95.15
65972;SHT31;52726;48.852;9.152;2023-01-04T04:21:29;2.29;95.11
65972;SHT31;52726;48.852;9.152;2023-01-04T04:23:55;2.32;95.02
65972;SHT31;52726;48.852;9.152;2023-01-04T04:26:20;2.32;95.06
65972;SHT31;52726;48.852;9.152;2023-01-04T04:28:46;2.39;95.05
65972;SHT31;52726;48.852;9.152;2023-01-04T04:31:12;2.42;95.04
65972;SHT31;52726;48.852;9.152;2023-01-04T04:33:37;2.46;95.10
65972;SHT31;52726;48.852;9.152;2023-01-04T04:36:03;2.60;95.15
65972;SHT31;52726;48.852;9.152;2023-01-04T04:38:29;2.73;94.62
65972;SHT31;52726;48.852;9.152;2023-01-04T04:40:54;2.79;94.28
65972;SHT31;52726;48.852;9.152;2023-01-04T04:43:38;2.86;94.30
65972;SHT31;52726;48.852;9.152;2023-01-04T04:46:03;2.90;94.06
65972;SHT31;52726;48.852;9.152;2023-01-04T04:48:29;2.93;93.97
65972;SHT31;52726;48.852;9.152;2023-01-04T04:50:54;3.04;93.73
65972;SHT31;52726;48.852;9.152;2023-01-04T04:53:20;3.15;93.41
65972;SHT31;52726;48.852;9.152;2023-01-04T04:55:45;3.29;93.13
65972;SHT31;52726;48.852;9.152;2023-01-04T04:58:10;3.38;91.98
65972;SHT31;52726;48.852;9.152;2023-01-04T05:00:36;3.43;91.79
65972;SHT31;52726;48.852;9.152;2023-01-04T05:03:01;3.54;92.13
65972;SHT31;52726;48.852;9.152;2023-01-04T05:05:27;3.63;91.69
65972;SHT31;52726;48.852;9.152;2023-01-04T05:07:53;3.66;91.44
65972;SHT31;52726;48.852;9.152;2023-01-04T05:10:18;3.73;90.97
65972;SHT31;52726;48.852;9.152;2023-01-04T05:12:43;3.82;90.23
65972;SHT31;52726;48.852;9.152;2023-01-04T05:15:36;3.91;89.98
65972;SHT31;52726;48.852;9.152;2023-01-04T05:18:03;4.01;89.51
65972;SHT31;52726;48.852;9.152;2023-01-04T05:20:29;4.15;89.37
65972;SHT31;52726;48.852;9.152;2023-01-04T05:22:54;4.34;88.02
65972;SHT31;52726;48.852;9.152;2023-01-04T05:25:20;4.49;87.55
65972;SHT31;52726;48.852;9.152;2023-01-04T05:27:45;4.59;87.08
65972;SHT31;52726;48.852;9.152;2023-01-04T05:30:12;4.81;86.69
65972;SHT31;52726;48.852;9.152;2023-01-04T05:32:57;4.97;85.95
65972;SHT31;52726;48.852;9.152;2023-01-04T05:35:23;5.06;85.44
65972;SHT31;52726;48.852;9.152;2023-01-04T05:37:48;5.24;85.02
65972;SHT31;52726;48.852;9.152;2023-01-04T05:40:14;5.28;84.55
65972;SHT31;52726;48.852;9.152;2023-01-04T05:42:39;5.38;84.37
65972;SHT31;52726;48.852;9.152;2023-01-04T05:45:05;5.42;84.09
65972;SHT31;52726;48.852;9.152;2023-01-04T05:47:31;5.54;83.34
65972;SHT31;52726;48.852;9.152;2023-01-04T05:49:56;5.58;83.23
65972;SHT31;52726;48.852;9.152;2023-01-04T05:52:22;5.59;83.41
65972;SHT31;52726;48.852;9.152;2023-01-04T05:54:47;5.62;83.18
65972;SHT31;52726;48.852;9.152;2023-01-04T05:57:13;5.62;82.79
65972;SHT31;52726;48.852;9.152;2023-01-04T05:59:39;5.66;82.75
65972;SHT31;52726;48.852;9.152;2023-01-04T06:02:05;5.66;83.17
65972;SHT31;52726;48.852;9.152;2023-01-04T06:04:31;5.66;82.77
65972;SHT31;52726;48.852;9.152;2023-01-04T06:06:56;5.72;82.62
65972;SHT31;52726;48.852;9.152;2023-01-04T06:09:22;5.63;82.94
65972;SHT31;52726;48.852;9.152;2023-01-04T06:11:49;5.67;83.13
65972;SHT31;52726;48.852;9.152;2023-01-04T06:14:14;5.72;82.30
65972;SHT31;52726;48.852;9.152;2023-01-04T06:16:39;5.79;82.33
65972;SHT31;52726;48.852;9.152;2023-01-04T06:19:05;5.80;82.30
65972;SHT31;52726;48.852;9.152;2023-01-04T06:21:30;5.82;82.37
65972;SHT31;52726;48.852;9.152;2023-01-04T06:23:56;5.86;82.05
65972;SHT31;52726;48.852;9.152;2023-01-04T06:26:21;5.86;82.18
65972;SHT31;52726;48.852;9.152;2023-01-04T06:28:47;5.86;82.23
65972;SHT31;52726;48.852;9.152;2023-01-04T06:31:12;5.94;81.94
65972;SHT31;52726;48.852;9.152;2023-01-04T06:33:38;5.99;81.62
65972;SHT31;52726;48.852;9.152;2023-01-04T06:36:04;6.02;81.09
65972;SHT31;52726;48.852;9.152;2023-01-04T06:38:31;6.06;80.86
65972;SHT31;52726;48.852;9.152;2023-01-04T06:40:56;6.11;80.84
65972;SHT31;52726;48.852;9.152;2023-01-04T06:43:22;6.13;80.74
65972;SHT31;52726;48.852;9.152;2023-01-04T06:45:47;6.10;81.02
65972;SHT31;52726;48.852;9.152;2023-01-04T06:48:13;6.14;80.82
65972;SHT31;52726;48.852;9.152;2023-01-04T06:50:39;6.21;80.48
65972;SHT31;52726;48.852;9.152;2023-01-04T06:53:04;6.21;80.60
65972;SHT31;52726;48.852;9.152;2023-01-04T06:55:30;6.21;80.77
65972;SHT31;52726;48.852;9.152;2023-01-04T06:57:56;6.23;80.56
65972;SHT31;52726;48.852;9.152;2023-01-04T07:00:21;6.28;79.99
65972;SHT31;52726;48.852;9.152;2023-01-04T07:02:46;6.30;80.21
65972;SHT31;52726;48.852;9.152;2023-01-04T07:05:12;6.31;80.03
65972;SHT31;52726;48.852;9.152;2023-01-04T07:07:37;6.30;80.12
65972;SHT31;52726;48.852;9.152;2023-01-04T07:10:03;6.33;80.16
65972;SHT31;52726;48.852;9.152;2023-01-04T07:12:28;6.30;80.10
65972;SHT31;52726;48.852;9.152;2023-01-04T07:14:54;6.34;79.98
65972;SHT31;52726;48.852;9.152;2023-01-04T07:17:19;6.33;80.26
65972;SHT31;52726;48.852;9.152;2023-01-04T07:19:44;6.34;80.16
65972;SHT31;52726;48.852;9.152;2023-01-04T07:22:10;6.35;79.93
65972;SHT31;52726;48.852;9.152;2023-01-04T07:24:36;6.38;79.66
65972;SHT31;52726;48.852;9.152;2023-01-04T07:27:01;6.42;79.80
65972;SHT31;52726;48.852;9.152;2023-01-04T07:29:27;6.38;80.02
65972;SHT31;52726;48.852;9.152;2023-01-04T07:31:53;6.41;80.23
65972;SHT31;52726;48.852;9.152;2023-01-04T07:34:21;6.34;81.00
65972;SHT31;52726;48.852;9.152;2023-01-04T07:36:47;6.30;81.20
65972;SHT31;52726;48.852;9.152;2023-01-04T07:39:13;6.31;81.65
65972;SHT31;52726;48.852;9.152;2023-01-04T07:41:39;6.28;81.80
65972;SHT31;52726;48.852;9.152;2023-01-04T07:44:05;6.27;82.05
65972;SHT31;52726;48.852;9.152;2023-01-04T07:46:32;6.27;82.91
65972;SHT31;52726;48.852;9.152;2023-01-04T07:48:58;6.21;83.64
65972;SHT31;52726;48.852;9.152;2023-01-04T07:51:23;6.16;84.08
65972;SHT31;52726;48.852;9.152;2023-01-04T07:53:49;6.16;84.89
65972;SHT31;52726;48.852;9.152;2023-01-04T07:56:15;6.11;84.56
65972;SHT31;52726;48.852;9.152;2023-01-04T07:58:41;6.09;84.89
65972;SHT31;52726;48.852;9.152;2023-01-04T08:03:32;6.07;85.46
65972;SHT31;52726;48.852;9.152;2023-01-04T08:06:01;6.07;85.85
65972;SHT31;52726;48.852;9.152;2023-01-04T08:08:27;6.10;85.36
65972;SHT31;52726;48.852;9.152;2023-01-04T08:10:52;6.10;85.28
65972;SHT31;52726;48.852;9.152;2023-01-04T08:13:18;6.06;85.88
65972;SHT31;52726;48.852;9.152;2023-01-04T08:15:43;6.07;85.73
65972;SHT31;52726;48.852;9.152;2023-01-04T08:18:08;6.14;85.65
65972;SHT31;52726;48.852;9.152;2023-01-04T08:20:34;6.17;85.49
65972;SHT31;52726;48.852;9.152;2023-01-04T08:22:59;6.20;85.60
65972;SHT31;52726;48.852;9.152;2023-01-04T08:25:24;6.21;85.30
65972;SHT31;52726;48.852;9.152;2023-01-04T08:28:22;6.27;84.99
65972;SHT31;52726;48.852;9.152;2023-01-04T08:30:50;6.28;84.36
65972;SHT31;52726;48.852;9.152;2023-01-04T08:33:16;6.31;84.65
65972;SHT31;52726;48.852;9.152;2023-01-04T08:35:41;6.33;84.72
65972;SHT31;52726;48.852;9.152;2023-01-04T08:38:07;6.37;84.34
65972;SHT31;52726;48.852;9.152;2023-01-04T08:40:32;6.41;84.58
65972;SHT31;52726;48.852;9.152;2023-01-04T08:42:57;6.46;83.48
65972;SHT31;52726;48.852;9.152;2023-01-04T08:45:23;6.48;83.89
65972;SHT31;52726;48.852;9.152;2023-01-04T08:47:49;6.51;83.97
65972;SHT31;52726;48.852;9.152;2023-01-04T08:50:14;6.58;83.12
65972;SHT31;52726;48.852;9.152;2023-01-04T08:52:41;6.55;83.74
65972;SHT31;52726;48.852;9.152;2023-01-04T08:55:07;6.55;83.77
65972;SHT31;52726;48.852;9.152;2023-01-04T08:57:33;6.56;82.93
65972;SHT31;52726;48.852;9.152;2023-01-04T08:59:59;6.67;82.24
65972;SHT31;52726;48.852;9.152;2023-01-04T09:02:26;6.71;82.81
65972;SHT31;52726;48.852;9.152;2023-01-04T09:04:52;6.73;82.02
65972;SHT31;52726;48.852;9.152;2023-01-04T09:07:23;6.79;81.80
65972;SHT31;52726;48.852;9.152;2023-01-04T09:09:49;6.85;82.12
65972;SHT31;52726;48.852;9.152;2023-01-04T09:12:14;6.90;81.89
65972;SHT31;52726;48.852;9.152;2023-01-04T09:14:42;6.93;81.51
65972;SHT31;52726;48.852;9.152;2023-01-04T09:17:08;6.92;81.27
65972;SHT31;52726;48.852;9.152;2023-01-04T09:19:33;7.00;81.23
65972;SHT31;52726;48.852;9.152;2023-01-04T09:21:58;7.09;80.25
65972;SHT31;52726;48.852;9.152;2023-01-04T09:24:24;7.14;80.07
65972;SHT31;52726;48.852;9.152;2023-01-04T09:26:49;7.20;79.91
65972;SHT31;52726;48.852;9.152;2023-01-04T09:29:15;7.23;79.96
65972;SHT31;52726;48.852;9.152;2023-01-04T09:31:40;7.32;79.24
65972;SHT31;52726;48.852;9.152;2023-01-04T09:34:06;7.35;79.07
65972;SHT31;52726;48.852;9.152;2023-01-04T09:36:31;7.34;78.95
65972;SHT31;52726;48.852;9.152;2023-01-04T09:38:56;7.37;79.16
65972;SHT31;52726;48.852;9.152;2023-01-04T09:43:50;7.35;79.27
65972;SHT31;52726;48.852;9.152;2023-01-04T09:49:28;7.37;79.39
65972;SHT31;52726;48.852;9.152;2023-01-04T09:51:59;7.37;79.02
65972;SHT31;52726;48.852;9.152;2023-01-04T09:54:34;7.38;79.00
65972;SHT31;52726;48.852;9.152;2023-01-04T09:57:15;7.37;78.95
65972;SHT31;52726;48.852;9.152;2023-01-04T09:59:42;7.40;78.86
65972;SHT31;52726;48.852;9.152;2023-01-04T10:02:14;7.47;78.53
65972;SHT31;52726;48.852;9.152;2023-01-04T10:04:48;7.46;78.73
65972;SHT31;52726;48.852;9.152;2023-01-04T10:07:24;7.44;79.04
65972;SHT31;52726;48.852;9.152;2023-01-04T10:09:51;7.48;78.86
65972;SHT31;52726;48.852;9.152;2023-01-04T10:15:18;7.52;78.88
65972;SHT31;52726;48.852;9.152;2023-01-04T10:17:56;7.58;78.71
65972;SHT31;52726;48.852;9.152;2023-01-04T10:20:44;7.65;78.84
65972;SHT31;52726;48.852;9.152;2023-01-04T10:26:34;7.79;77.50
65972;SHT31;52726;48.852;9.152;2023-01-04T10:32:02;7.85;77.94
65972;SHT31;52726;48.852;9.152;2023-01-04T10:34:32;7.93;77.98
65972;SHT31;52726;48.852;9.152;2023-01-04T10:37:05;7.96;77.86
65972;SHT31;52726;48.852;9.152;2023-01-04T10:39:35;7.97;78.32
65972;SHT31;52726;48.852;9.152;2023-01-04T10:42:14;8.06;78.10
65972;SHT31;52726;48.852;9.152;2023-01-04T10:47:51;8.22;78.16
65972;SHT31;52726;48.852;9.152;2023-01-04T10:50:23;8.30;77.72
65972;SHT31;52726;48.852;9.152;2023-01-04T10:52:55;8.37;77.76
65972;SHT31;52726;48.852;9.152;2023-01-04T10:58:03;8.51;77.88
65972;SHT31;52726;48.852;9.152;2023-01-04T11:00:50;8.54;77.00
65972;SHT31;52726;48.852;9.152;2023-01-04T11:03:28;8.57;77.34
65972;SHT31;52726;48.852;9.152;2023-01-04T11:06:23;8.65;76.76
65972;SHT31;52726;48.852;9.152;2023-01-04T11:08:53;8.68;76.91
65972;SHT31;52726;48.852;9.152;2023-01-04T11:11:35;8.69;77.04
65972;SHT31;52726;48.852;9.152;2023-01-04T11:14:02;8.71;76.84
65972;SHT31;52726;48.852;9.152;2023-01-04T11:16:33;8.73;77.06
65972;SHT31;52726;48.852;9.152;2023-01-04T11:19:02;8.79;76.98
65972;SHT31;52726;48.852;9.152;2023-01-04T11:21:36;8.85;76.72
65972;SHT31;52726;48.852;9.152;2023-01-04T11:24:05;8.85;76.35
65972;SHT31;52726;48.852;9.152;2023-01-04T11:26:37;8.91;76.68
65972;SHT31;52726;48.852;9.152;2023-01-04T11:29:05;8.92;76.73
65972;SHT31;52726;48.852;9.152;2023-01-04T11:31:52;8.91;76.56
65972;SHT31;52726;48.852;9.152;2023-01-04T11:37:03;8.95;76.77
65972;SHT31;52726;48.852;9.152;2023-01-04T11:39:28;8.96;76.30
65972;SHT31;52726;48.852;9.152;2023-01-04T11:42:00;8.98;76.91
65972;SHT31;52726;48.852;9.152;2023-01-04T11:44:28;9.00;76.57
65972;SHT31;52726;48.852;9.152;2023-01-04T11:47:18;9.03;76.82
65972;SHT31;52726;48.852;9.152;2023-01-04T11:49:44;9.02;76.89
65972;SHT31;52726;48.852;9.152;2023-01-04T11:52:35;9.06;76.80
65972;SHT31;52726;48.852;9.152;2023-01-04T11:55:24;9.05;77.16
65972;SHT31;52726;48.852;9.152;2023-01-04T11:58:10;9.06;76.43
65972;SHT31;52726;48.852;9.152;2023-01-04T12:00:36;9.05;76.30
65972;SHT31;52726;48.852;9.152;2023-01-04T12:03:15;9.03;76.71
65972;SHT31;52726;48.852;9.152;2023-01-04T12:05:42;8.99;76.72
65972;SHT31;52726;48.852;9.152;2023-01-04T12:08:29;8.99;76.51
65972;SHT31;52726;48.852;9.152;2023-01-04T12:10:59;8.99;77.04
65972;SHT31;52726;48.852;9.152;2023-01-04T12:13:30;8.98;77.20
65972;SHT31;52726;48.852;9.152;2023-01-04T12:18:45;9.00;77.25
65972;SHT31;52726;48.852;9.152;2023-01-04T12:21:22;9.02;77.44
65972;SHT31;52726;48.852;9.152;2023-01-04T12:23:48;9.05;77.22
65972;SHT31;52726;48.852;9.152;2023-01-04T12:26:15;9.06;77.18
65972;SHT31;52726;48.852;9.152;2023-01-04T12:28:43;9.08;77.46
65972;SHT31;52726;48.852;9.152;2023-01-04T12:33:50;9.05;77.42
65972;SHT31;52726;48.852;9.152;2023-01-04T12:36:21;9.06;77.66
65972;SHT31;52726;48.852;9.152;2023-01-04T12:50:18;9.19;78.25
65972;SHT31;52726;48.852;9.152;2023-01-04T13:08:21;9.36;78.26
65972;SHT31;52726;48.852;9.152;2023-01-04T13:16:21;9.55;77.68
65972;SHT31;52726;48.852;9.152;2023-01-04T13:19:24;9.58;77.60
65972;SHT31;52726;48.852;9.152;2023-01-04T13:21:44;9.65;77.31
65972;SHT31;52726;48.852;9.152;2023-01-04T13:24:22;9.70;76.98
65972;SHT31;52726;48.852;9.152;2023-01-04T13:26:52;9.75;76.81
65972;SHT31;52726;48.852;9.152;2023-01-04T13:29:28;9.74;77.27
65972;SHT31;52726;48.852;9.152;2023-01-04T13:32:01;9.74;77.16
65972;SHT31;52726;48.852;9.152;2023-01-04T13:37:55;9.81;76.97
65972;SHT31;52726;48.852;9.152;2023-01-04T13:40:24;9.82;77.23
65972;SHT31;52726;48.852;9.152;2023-01-04T13:48:10;9.91;76.96
65972;SHT31;52726;48.852;9.152;2023-01-04T13:50:42;9.92;77.00
65972;SHT31;52726;48.852;9.152;2023-01-04T13:53:22;9.94;76.84
65972;SHT31;52726;48.852;9.152;2023-01-04T13:55:58;9.98;76.98
65972;SHT31;52726;48.852;9.152;2023-01-04T13:58:26;9.98;77.03
65972;SHT31;52726;48.852;9.152;2023-01-04T14:01:05;10.05;76.49
65972;SHT31;52726;48.852;9.152;2023-01-04T14:06:16;10.08;76.62
65972;SHT31;52726;48.852;9.152;2023-01-04T14:08:50;10.09;76.71
65972;SHT31;52726;48.852;9.152;2023-01-04T14:11:18;10.09;76.39
65972;SHT31;52726;48.852;9.152;2023-01-04T14:14:05;10.09;76.27
65972;SHT31;52726;48.852;9.152;2023-01-04T14:16:37;10.09;76.60
65972;SHT31;52726;48.852;9.152;2023-01-04T14:21:59;10.08;76.45
65972;SHT31;52726;48.852;9.152;2023-01-04T14:24:31;10.05;76.62
65972;SHT31;52726;48.852;9.152;2023-01-04T14:26:57;10.05;76.65
65972;SHT31;52726;48.852;9.152;2023-01-04T14:29:29;10.05;76.60
65972;SHT31;52726;48.852;9.152;2023-01-04T14:31:55;10.05;76.65
65972;SHT31;52726;48.852;9.152;2023-01-04T14:34:21;10.06;76.60
65972;SHT31;52726;48.852;9.152;2023-01-04T14:36:47;10.05;76.66
65972;SHT31;52726;48.852;9.152;2023-01-04T14:39:23;10.08;76.63
65972;SHT31;52726;48.852;9.152;2023-01-04T14:41:53;10.03;76.58
65972;SHT31;52726;48.852;9.152;2023-01-04T14:44:24;10.05;76.62
65972;SHT31;52726;48.852;9.152;2023-01-04T14:46:54;10.05;76.82
65972;SHT31;52726;48.852;9.152;2023-01-04T14:49:20;10.06;76.36
65972;SHT31;52726;48.852;9.152;2023-01-04T14:51:51;10.08;76.65
65972;SHT31;52726;48.852;9.152;2023-01-04T14:54:18;10.09;76.77
65972;SHT31;52726;48.852;9.152;2023-01-04T14:56:44;10.08;76.44
65972;SHT31;52726;48.852;9.152;2023-01-04T14:59:30;10.06;76.59
65972;SHT31;52726;48.852;9.152;2023-01-04T15:01:56;10.02;76.77
65972;SHT31;52726;48.852;9.152;2023-01-04T15:04:22;9.99;76.63
65972;SHT31;52726;48.852;9.152;2023-01-04T15:06:54;9.99;77.01
65972;SHT31;52726;48.852;9.152;2023-01-04T15:09:20;9.96;76.94
65972;SHT31;52726;48.852;9.152;2023-01-04T15:11:46;9.95;76.90
65972;SHT31;52726;48.852;9.152;2023-01-04T15:14:11;9.96;76.77
65972;SHT31;52726;48.852;9.152;2023-01-04T15:16:38;9.96;76.82
65972;SHT31;52726;48.852;9.152;2023-01-04T15:19:26;9.96;76.95
65972;SHT31;52726;48.852;9.152;2023-01-04T15:21:54;9.95;76.86
65972;SHT31;52726;48.852;9.152;2023-01-04T15:24:19;9.96;76.99
65972;SHT31;52726;48.852;9.152;2023-01-04T15:26:44;9.98;76.95
65972;SHT31;52726;48.852;9.152;2023-01-04T15:29:12;9.98;76.98
65972;SHT31;52726;48.852;9.152;2023-01-04T15:31:44;9.94;77.11
65972;SHT31;52726;48.852;9.152;2023-01-04T15:34:09;9.95;77.12
65972;SHT31;52726;48.852;9.152;2023-01-04T15:36:35;9.89;77.22
65972;SHT31;52726;48.852;9.152;2023-01-04T15:39:03;9.98;77.25
65972;SHT31;52726;48.852;9.152;2023-01-04T15:41:28;9.96;77.25
65972;SHT31;52726;48.852;9.152;2023-01-04T15:44:14;9.92;77.76
65972;SHT31;52726;48.852;9.152;2023-01-04T15:46:43;9.92;77.47
65972;SHT31;52726;48.852;9.152;2023-01-04T15:49:08;9.99;77.59
65972;SHT31;52726;48.852;9.152;2023-01-04T15:51:33;9.99;77.52
65972;SHT31;52726;48.852;9.152;2023-01-04T15:53:59;10.01;77.60
65972;SHT31;52726;48.852;9.152;2023-01-04T15:56:27;10.03;77.54
65972;SHT31;52726;48.852;9.152;2023-01-04T15:58:53;10.01;77.68
65972;SHT31;52726;48.852;9.152;2023-01-04T16:01:19;10.05;77.55
65972;SHT31;52726;48.852;9.152;2023-01-04T16:03:44;10.05;77.51
65972;SHT31;52726;48.852;9.152;2023-01-04T16:06:15;10.03;77.65
65972;SHT31;52726;48.852;9.152;2023-01-04T16:08:41;10.03;77.73
65972;SHT31;52726;48.852;9.152;2023-01-04T16:11:09;9.98;77.96
65972;SHT31;52726;48.852;9.152;2023-01-04T16:13:35;9.99;77.80
65972;SHT31;52726;48.852;9.152;2023-01-04T16:16:00;10.10;77.48
65972;SHT31;52726;48.852;9.152;2023-01-04T16:18:26;10.09;77.60
65972;SHT31;52726;48.852;9.152;2023-01-04T16:20:52;10.12;77.46
65972;SHT31;52726;48.852;9.152;2023-01-04T16:23:17;10.08;77.66
65972;SHT31;52726;48.852;9.152;2023-01-04T16:25:42;10.12;77.66
65972;SHT31;52726;48.852;9.152;2023-01-04T16:28:08;10.12;77.54
65972;SHT31;52726;48.852;9.152;2023-01-04T16:30:34;10.16;77.24
65972;SHT31;52726;48.852;9.152;2023-01-04T16:32:59;10.10;77.39
65972;SHT31;52726;48.852;9.152;2023-01-04T16:35:25;10.09;77.44
65972;SHT31;52726;48.852;9.152;2023-01-04T16:37:50;10.09;77.38
65972;SHT31;52726;48.852;9.152;2023-01-04T16:40:15;10.06;77.52
65972;SHT31;52726;48.852;9.152;2023-01-04T16:42:41;10.06;77.30
65972;SHT31;52726;48.852;9.152;2023-01-04T16:45:30;10.05;77.51
65972;SHT31;52726;48.852;9.152;2023-01-04T16:48:03;10.06;77.46
65972;SHT31;52726;48.852;9.152;2023-01-04T16:50:28;10.08;77.43
65972;SHT31;52726;48.852;9.152;2023-01-04T16:52:53;10.05;77.42
65972;SHT31;52726;48.852;9.152;2023-01-04T16:55:19;10.05;77.68
65972;SHT31;52726;48.852;9.152;2023-01-04T16:57:44;10.03;77.78
65972;SHT31;52726;48.852;9.152;2023-01-04T17:00:10;10.02;77.65
65972;SHT31;52726;48.852;9.152;2023-01-04T17:05:51;10.05;77.68
65972;SHT31;52726;48.852;9.152;2023-01-04T17:08:19;10.09;77.23
65972;SHT31;52726;48.852;9.152;2023-01-04T17:10:52;10.15;77.05
65972;SHT31;52726;48.852;9.152;2023-01-04T17:13:18;10.12;77.44
65972;SHT31;52726;48.852;9.152;2023-01-04T17:15:44;10.09;77.63
65972;SHT31;52726;48.852;9.152;2023-01-04T17:18:09;10.10;77.24
65972;SHT31;52726;48.852;9.152;2023-01-04T17:20:36;10.10;77.31
65972;SHT31;52726;48.852;9.152;2023-01-04T17:23:02;10.12;77.20
65972;SHT31;52726;48.852;9.152;2023-01-04T17:25:27;10.12;77.75
65972;SHT31;52726;48.852;9.152;2023-01-04T17:27:53;10.10;77.41
65972;SHT31;52726;48.852;9.152;2023-01-04T17:30:18;10.06;77.66
65972;SHT31;52726;48.852;9.152;2023-01-04T17:32:43;10.05;77.67
65972;SHT31;52726;48.852;9.152;2023-01-04T17:35:09;10.03;77.74
65972;SHT31;52726;48.852;9.152;2023-01-04T17:37:34;10.06;77.66
65972;SHT31;52726;48.852;9.152;2023-01-04T17:39:59;10.03;77.72
65972;SHT31;52726;48.852;9.152;2023-01-04T17:42:25;10.03;77.66
65972;SHT31;52726;48.852;9.152;2023-01-04T17:44:50;10.06;77.62
65972;SHT31;52726;48.852;9.152;2023-01-04T17:47:15;10.06;77.66
65972;SHT31;52726;48.852;9.152;2023-01-04T17:49:41;10.08;77.34
65972;SHT31;52726;48.852;9.152;2023-01-04T17:52:06;10.03;77.92
65972;SHT31;52726;48.852;9.152;2023-01-04T17:54:31;10.10;77.47
65972;SHT31;52726;48.852;9.152;2023-01-04T17:56:58;10.06;78.00
65972;SHT31;52726;48.852;9.152;2023-01-04T17:59:23;10.05;78.14
65972;SHT31;52726;48.852;9.152;2023-01-04T18:01:49;10.06;78.23